Startpagina
METAR-TAF:

METAR-TAF

Vliegvelden :

Liepāja, Letland

breedte: 56-31N, lengte: 021-05E, hoogte: 5 m

Actueel weer

Dit bericht is 34 minuten geleden gemaakt, om 12:50 UTC
Wind 10 kt uit het oostzuidoosten
Temperatuur 2°C
Vochtigheid 75%
Druk 1023 hPa
Zicht 10 km of meer

METAR: EVLA 221250Z AUTO 11010KT 9999 OVC087/// 02/M02 Q1023

Tijdstip: 15:24 (13:24 UTC)

Verwachting

Dit bericht is 2 uur en het 21 minuten geleden gemaakt, om 11:03 UTC
Verwachting geldig van 22 om 12 UTC tot 23 om 12 UTC
Wind 13 kt uit het oostzuidoosten
Zicht 10 km of meer
Gebroken wolken op 2000 ft
Tijdelijke
van 22 om 12 UTC tot 22 om 15 UTC
Wind 15 kt uit het zuidoosten met uitschieters tot 25 kt

TAF: EVLA 221103Z 2212/2312 12013KT 9999 BKN020 TEMPO 2212/2215 14015G25KT

Waarnemingen en weersverwachtingen van meer dan 4000 vliegvelden (METAR en TAF).

De beschikbare stations zijn de gele en rode punten op de kaart.

Ga met uw muis naar het station om de naam te zien.

Klik dan om waarnemingen en weersverwachtingen te zien.

kaart wijzigen: klik op de groene knoppen met een zwart kruis om in te zoomen, op de groene knop met een streepje om uit te zoomen of op de groene pijlen voor aangrenzende kaarten.


METAR-TAF: